createdAt,value
2017-06-01T00:01:04.006Z,3.30
2017-06-01T00:03:32.302Z,3.40
2017-06-01T00:06:00.628Z,2.18
2017-06-01T00:08:28.923Z,3.98
2017-06-01T00:10:57.266Z,3.70
2017-06-01T00:13:25.560Z,9.96
2017-06-01T00:15:53.855Z,3.72
2017-06-01T00:18:22.167Z,3.48
2017-06-01T00:20:50.463Z,4.40
2017-06-01T00:23:18.782Z,3.58
2017-06-01T00:25:47.083Z,3.38
2017-06-01T00:28:15.410Z,2.96
2017-06-01T00:30:43.711Z,4.56
2017-06-01T00:33:12.058Z,5.92
2017-06-01T00:35:40.355Z,3.86
2017-06-01T00:38:08.656Z,4.08
2017-06-01T00:40:36.971Z,3.08
2017-06-01T00:43:05.270Z,3.50
2017-06-01T00:45:33.589Z,5.80
2017-06-01T00:48:01.886Z,2.80
2017-06-01T00:50:30.203Z,2.88
2017-06-01T00:52:58.498Z,3.30
2017-06-01T00:55:26.841Z,3.50
2017-06-01T00:57:55.140Z,3.74
2017-06-01T01:00:23.444Z,2.78
2017-06-01T01:02:51.759Z,3.48
2017-06-01T01:05:20.050Z,3.54
2017-06-01T01:07:48.367Z,2.64
2017-06-01T01:10:16.655Z,2.72
2017-06-01T01:12:44.967Z,3.94
2017-06-01T01:15:13.264Z,3.52
2017-06-01T01:17:41.598Z,3.48
2017-06-01T01:20:09.894Z,3.00
2017-06-01T01:22:38.190Z,3.50
2017-06-01T01:25:07.023Z,4.22
2017-06-01T01:27:35.319Z,4.34
2017-06-01T01:30:03.636Z,4.74
2017-06-01T01:32:31.927Z,4.70
2017-06-01T01:35:00.245Z,4.10
2017-06-01T01:37:28.539Z,3.60
2017-06-01T01:39:56.870Z,3.56
2017-06-01T01:42:25.166Z,3.02
2017-06-01T01:44:53.459Z,4.92
2017-06-01T01:47:21.770Z,4.58
2017-06-01T01:49:50.071Z,4.00
2017-06-01T01:52:18.396Z,3.90
2017-06-01T01:54:46.696Z,3.66
2017-06-01T01:57:15.015Z,3.56
2017-06-01T01:59:43.311Z,3.54
2017-06-01T02:02:11.608Z,2.80
2017-06-01T02:04:39.925Z,3.68
2017-06-01T02:07:08.218Z,2.96
2017-06-01T02:09:36.529Z,2.68
2017-06-01T02:12:04.834Z,3.14
2017-06-01T02:14:33.156Z,3.72
2017-06-01T02:17:01.451Z,2.62
2017-06-01T02:19:30.230Z,2.72
2017-06-01T02:21:58.523Z,3.04
2017-06-01T02:24:26.815Z,2.74
2017-06-01T02:26:55.140Z,3.34
2017-06-01T02:29:23.446Z,2.92
2017-06-01T02:31:51.764Z,3.62
2017-06-01T02:34:20.058Z,5.20
2017-06-01T02:36:48.378Z,3.60
2017-06-01T02:39:16.679Z,3.44
2017-06-01T02:41:45.029Z,3.46
2017-06-01T02:44:13.325Z,5.32
2017-06-01T02:46:41.620Z,3.18
2017-06-01T02:49:09.936Z,3.36
2017-06-01T02:51:38.239Z,3.74
2017-06-01T02:54:06.555Z,3.54
2017-06-01T02:56:34.850Z,4.68
2017-06-01T02:59:03.166Z,4.00
2017-06-01T03:01:31.899Z,5.46
2017-06-01T03:04:00.262Z,5.74
2017-06-01T03:06:28.558Z,3.20
2017-06-01T03:08:56.858Z,3.30
2017-06-01T03:11:25.175Z,2.90
2017-06-01T03:13:53.475Z,2.66
2017-06-01T03:16:21.795Z,6.44
2017-06-01T03:18:50.100Z,8.22
2017-06-01T03:21:18.415Z,3.94
2017-06-01T03:23:46.714Z,3.42
2017-06-01T03:26:15.035Z,4.74
2017-06-01T03:28:43.341Z,4.64
2017-06-01T03:31:11.666Z,6.26
2017-06-01T03:33:39.987Z,4.02
2017-06-01T03:36:08.283Z,4.56
2017-06-01T03:38:36.655Z,3.94
2017-06-01T03:41:04.953Z,3.40
2017-06-01T03:43:33.267Z,3.26
2017-06-01T03:46:01.566Z,3.50
2017-06-01T03:48:29.886Z,2.52
2017-06-01T03:50:58.187Z,6.16
2017-06-01T03:53:26.511Z,5.42
2017-06-01T03:55:54.872Z,4.62
2017-06-01T03:58:23.167Z,4.48
2017-06-01T04:00:51.490Z,5.70
2017-06-01T04:03:19.787Z,4.52
2017-06-01T04:05:48.111Z,4.16
2017-06-01T04:08:16.411Z,3.32
2017-06-01T04:10:44.707Z,3.40
2017-06-01T04:13:13.023Z,2.62
2017-06-01T04:15:41.334Z,2.84
2017-06-01T04:18:09.656Z,3.20
2017-06-01T04:20:37.946Z,2.92
2017-06-01T04:23:06.263Z,4.40
2017-06-01T04:25:34.564Z,3.54
2017-06-01T04:28:02.893Z,4.10
2017-06-01T04:30:31.197Z,2.60
2017-06-01T04:32:59.495Z,3.88
2017-06-01T04:35:27.817Z,2.90
2017-06-01T04:37:56.115Z,3.26
2017-06-01T04:40:24.435Z,2.70
2017-06-01T04:42:52.747Z,4.04
2017-06-01T04:45:21.067Z,3.66
2017-06-01T04:47:49.368Z,3.56
2017-06-01T04:50:17.707Z,3.98
2017-06-01T04:52:46.006Z,3.28
2017-06-01T04:55:14.307Z,6.04
2017-06-01T04:57:42.633Z,5.00
2017-06-01T05:00:11.028Z,5.34
2017-06-01T05:02:39.288Z,5.56
2017-06-01T05:05:07.587Z,6.44
2017-06-01T05:07:35.924Z,6.32
2017-06-01T05:10:04.219Z,6.90
2017-06-01T05:12:32.516Z,4.98
2017-06-01T05:15:00.836Z,4.70
2017-06-01T05:17:29.134Z,5.22
2017-06-01T05:19:56.683Z,4.78
2017-06-01T05:22:24.978Z,5.94
2017-06-01T05:24:53.298Z,7.18
2017-06-01T05:27:21.597Z,5.20
2017-06-01T05:29:49.923Z,5.88
2017-06-01T05:32:18.225Z,5.58
2017-06-01T05:34:46.522Z,4.52
2017-06-01T05:37:14.838Z,5.00
2017-06-01T05:39:43.146Z,4.80
2017-06-01T05:42:11.468Z,4.24
2017-06-01T05:44:39.773Z,4.56
2017-06-01T05:47:08.098Z,5.26
2017-06-01T05:49:36.399Z,5.88
2017-06-01T05:52:04.735Z,6.18
2017-06-01T05:54:33.027Z,5.92
2017-06-01T05:57:01.330Z,5.86
2017-06-01T05:59:29.651Z,5.36
2017-06-01T06:01:57.953Z,6.34
2017-06-01T06:04:26.267Z,6.26
2017-06-01T06:06:54.567Z,5.18
2017-06-01T06:09:22.883Z,5.58
2017-06-01T06:11:51.203Z,5.18
2017-06-01T06:14:19.551Z,4.52
2017-06-01T06:16:47.853Z,5.52
2017-06-01T06:19:16.152Z,4.76
2017-06-01T06:21:44.472Z,6.46
2017-06-01T06:24:12.774Z,5.08
2017-06-01T06:26:41.094Z,4.82
2017-06-01T06:29:09.387Z,4.24
2017-06-01T06:31:37.716Z,3.52
2017-06-01T06:34:06.013Z,3.78
2017-06-01T06:36:34.339Z,5.14
2017-06-01T06:39:02.639Z,4.30
2017-06-01T06:41:30.948Z,4.54
2017-06-01T06:43:59.267Z,3.50
2017-06-01T06:46:27.570Z,4.16
2017-06-01T06:48:55.890Z,5.06
2017-06-01T06:51:24.191Z,4.40
2017-06-01T06:53:52.512Z,4.60
2017-06-01T06:56:20.808Z,4.84
2017-06-01T06:58:49.131Z,5.32
2017-06-01T07:01:17.431Z,7.72
2017-06-01T07:03:45.721Z,5.28
2017-06-01T07:06:14.035Z,5.50
2017-06-01T07:08:42.342Z,5.50
2017-06-01T07:11:10.663Z,5.76
2017-06-01T07:13:38.958Z,4.88
2017-06-01T07:16:07.274Z,4.88
2017-06-01T07:18:35.570Z,5.32
2017-06-01T07:21:03.894Z,4.92
2017-06-01T07:23:32.199Z,4.90
2017-06-01T07:26:00.537Z,4.32
2017-06-01T07:28:28.839Z,4.62
2017-06-01T07:30:57.136Z,4.12
2017-06-01T07:33:25.455Z,4.50
2017-06-01T07:35:53.751Z,4.98
2017-06-01T07:38:22.070Z,4.86
2017-06-01T07:40:50.370Z,3.66
2017-06-01T07:43:18.690Z,3.86
2017-06-01T07:45:47.007Z,3.88
2017-06-01T07:48:15.350Z,4.14
2017-06-01T07:50:43.649Z,4.08
2017-06-01T07:53:11.947Z,4.42
2017-06-01T07:55:40.264Z,3.80
2017-06-01T07:58:08.559Z,4.58
2017-06-01T08:00:36.885Z,4.02
2017-06-01T08:03:05.186Z,6.60
2017-06-01T08:05:33.503Z,5.10
2017-06-01T08:08:01.804Z,4.72
2017-06-01T08:10:30.148Z,5.48
2017-06-01T08:12:58.451Z,4.76
2017-06-01T08:15:26.757Z,4.72
2017-06-01T08:17:55.076Z,4.76
2017-06-01T08:20:23.374Z,4.62
2017-06-01T08:22:51.688Z,5.34
2017-06-01T08:25:19.987Z,4.72
2017-06-01T08:27:48.307Z,4.70
2017-06-01T08:30:16.609Z,4.28
2017-06-01T08:32:44.898Z,4.84
2017-06-01T08:35:13.224Z,6.02
2017-06-01T08:37:41.525Z,4.42
2017-06-01T08:40:09.851Z,6.02
2017-06-01T08:42:38.162Z,6.12
2017-06-01T08:45:06.488Z,6.14
2017-06-01T08:47:34.786Z,4.86
2017-06-01T08:50:03.103Z,5.32
2017-06-01T08:52:31.418Z,4.82
2017-06-01T08:54:59.742Z,4.08
2017-06-01T08:57:28.062Z,5.08
2017-06-01T08:59:56.364Z,5.86
2017-06-01T09:02:24.681Z,5.52
2017-06-01T09:04:52.983Z,4.34
2017-06-01T09:07:21.306Z,4.30
2017-06-01T09:09:49.604Z,3.38
2017-06-01T09:12:17.904Z,4.30
2017-06-01T09:14:46.227Z,4.14
2017-06-01T09:17:14.528Z,4.46
2017-06-01T09:19:42.848Z,5.02
2017-06-01T09:22:11.147Z,4.28
2017-06-01T09:24:39.463Z,9.28
2017-06-01T09:27:07.754Z,4.14
2017-06-01T09:29:36.054Z,4.44
2017-06-01T09:32:04.367Z,4.06
2017-06-01T09:34:32.663Z,4.30
2017-06-01T09:37:00.991Z,4.50
2017-06-01T09:39:29.288Z,4.42
2017-06-01T09:41:57.603Z,4.52
2017-06-01T09:44:27.682Z,3.84
2017-06-01T09:46:56.007Z,4.70
2017-06-01T09:49:24.303Z,4.74
2017-06-01T09:51:52.607Z,5.90
2017-06-01T09:54:20.932Z,6.58
2017-06-01T09:56:49.233Z,4.60
2017-06-01T09:59:17.550Z,5.46
2017-06-01T10:01:45.852Z,4.38
2017-06-01T10:04:14.180Z,5.28
2017-06-01T10:06:42.478Z,4.40
2017-06-01T10:09:10.798Z,3.88
2017-06-01T10:11:39.100Z,4.40
2017-06-01T10:14:07.439Z,3.58
2017-06-01T10:16:35.750Z,3.70
2017-06-01T10:19:04.050Z,3.92
2017-06-01T10:21:32.367Z,4.20
2017-06-01T10:24:00.664Z,3.92
2017-06-01T10:26:28.978Z,4.84
2017-06-01T10:28:57.275Z,6.00
2017-06-01T10:31:25.617Z,6.76
2017-06-01T10:33:53.916Z,6.76
2017-06-01T10:36:22.229Z,4.42
2017-06-01T10:38:50.544Z,4.34
2017-06-01T10:41:18.847Z,4.44
2017-06-01T10:43:47.171Z,4.12
2017-06-01T10:46:15.476Z,4.72
2017-06-01T10:48:43.820Z,3.20
2017-06-01T10:51:12.119Z,4.50
2017-06-01T10:53:40.419Z,6.94
2017-06-01T10:56:08.735Z,4.28
2017-06-01T10:58:37.034Z,4.14
2017-06-01T11:01:05.349Z,4.40
2017-06-01T11:03:33.652Z,9.32
2017-06-01T11:06:01.995Z,5.02
2017-06-01T11:08:30.291Z,4.70
2017-06-01T11:10:58.592Z,5.40
2017-06-01T11:13:26.910Z,4.56
2017-06-01T11:15:55.214Z,4.50
2017-06-01T11:18:23.536Z,5.00
2017-06-01T11:20:51.840Z,4.76
2017-06-01T11:23:20.155Z,4.10
2017-06-01T11:25:48.452Z,5.02
2017-06-01T11:28:16.780Z,5.86
2017-06-01T11:30:45.075Z,3.64
2017-06-01T11:33:13.380Z,3.80
2017-06-01T11:35:41.699Z,3.54
2017-06-01T11:38:09.996Z,4.36
2017-06-01T11:40:38.318Z,5.76
2017-06-01T11:43:06.611Z,3.90
2017-06-01T11:45:34.926Z,3.78
2017-06-01T11:48:03.231Z,4.58
2017-06-01T11:50:31.574Z,4.02
2017-06-01T11:52:59.870Z,3.18
2017-06-01T11:55:28.169Z,3.60
2017-06-01T11:57:56.483Z,3.94
2017-06-01T12:00:24.784Z,3.70
2017-06-01T12:02:53.104Z,3.60
2017-06-01T12:05:21.404Z,2.44
2017-06-01T12:07:49.727Z,2.40
2017-06-01T12:10:18.029Z,3.04
2017-06-01T12:12:46.367Z,3.20
2017-06-01T12:15:14.667Z,2.00
2017-06-01T12:17:43.032Z,2.32
2017-06-01T12:20:11.353Z,1.90
2017-06-01T12:22:39.658Z,4.52
2017-06-01T12:25:07.989Z,2.34
2017-06-01T12:27:36.287Z,2.72
2017-06-01T12:30:04.609Z,2.04
2017-06-01T12:32:32.912Z,2.20
2017-06-01T12:35:01.258Z,3.24
2017-06-01T12:37:29.555Z,7.10
2017-06-01T12:39:57.854Z,3.22
2017-06-01T12:42:26.175Z,16.02
2017-06-01T12:44:53.704Z,2.54
2017-06-01T12:47:22.019Z,2.48
2017-06-01T12:49:50.323Z,3.40
2017-06-01T12:52:18.646Z,2.86
2017-06-01T12:54:46.942Z,3.34
2017-06-01T12:57:15.284Z,3.10
2017-06-01T12:59:44.774Z,3.36
2017-06-01T13:02:13.067Z,4.52
2017-06-01T13:04:41.389Z,2.52
2017-06-01T13:07:09.696Z,2.28
2017-06-01T13:09:38.019Z,2.44
2017-06-01T13:12:06.315Z,3.02
2017-06-01T13:14:34.651Z,2.52
2017-06-01T13:17:02.953Z,3.28
2017-06-01T13:19:31.251Z,2.30
2017-06-01T13:21:59.563Z,4.64
2017-06-01T13:24:27.870Z,2.70
2017-06-01T13:26:56.189Z,2.64
2017-06-01T13:29:24.644Z,2.56
2017-06-01T13:31:52.983Z,2.60
2017-06-01T13:34:21.287Z,3.06
2017-06-01T13:36:49.586Z,3.18
2017-06-01T13:39:17.900Z,2.80
2017-06-01T13:41:46.210Z,2.00
2017-06-01T13:44:14.695Z,2.76
2017-06-01T13:46:42.991Z,2.36
2017-06-01T13:49:11.316Z,2.70
2017-06-01T13:51:39.616Z,1.82
2017-06-01T13:54:07.963Z,2.26
2017-06-01T13:56:36.266Z,2.94
2017-06-01T13:59:04.575Z,2.30
2017-06-01T14:01:32.896Z,2.60
2017-06-01T14:04:01.205Z,2.04
2017-06-01T14:06:29.522Z,3.04
2017-06-01T14:08:57.814Z,2.46
2017-06-01T14:11:26.137Z,3.20
2017-06-01T14:13:54.435Z,2.84
2017-06-01T14:16:22.727Z,2.28
2017-06-01T14:18:51.050Z,2.80
2017-06-01T14:21:19.351Z,2.16
2017-06-01T14:23:47.668Z,2.14
2017-06-01T14:26:15.968Z,1.90
2017-06-01T14:28:44.292Z,1.90
2017-06-01T14:31:12.595Z,1.50
2017-06-01T14:33:40.916Z,2.28
2017-06-01T14:36:09.216Z,1.48
2017-06-01T14:38:37.520Z,2.22
2017-06-01T14:41:05.839Z,8.78
2017-06-01T14:43:34.139Z,2.58
2017-06-01T14:46:02.456Z,2.10
2017-06-01T14:48:30.755Z,2.38
2017-06-01T14:50:59.080Z,1.98
2017-06-01T14:53:27.383Z,1.78
2017-06-01T14:55:55.723Z,2.10
2017-06-01T14:58:24.019Z,2.04
2017-06-01T15:00:52.326Z,2.06
2017-06-01T15:03:20.645Z,2.24
2017-06-01T15:05:48.956Z,1.66
2017-06-01T15:08:17.278Z,1.56
2017-06-01T15:10:45.579Z,2.12
2017-06-01T15:13:13.896Z,1.92
2017-06-01T15:15:42.187Z,2.10
2017-06-01T15:18:10.528Z,2.82
2017-06-01T15:20:38.833Z,2.16
2017-06-01T15:23:07.134Z,1.90
2017-06-01T15:25:35.455Z,2.30
2017-06-01T15:28:03.750Z,2.34
2017-06-01T15:30:32.072Z,2.00
2017-06-01T15:33:00.374Z,3.12
2017-06-01T15:35:28.695Z,1.28
2017-06-01T15:37:56.994Z,1.94
2017-06-01T15:40:25.334Z,1.30
2017-06-01T15:42:53.696Z,1.40
2017-06-01T15:45:21.982Z,2.18
2017-06-01T15:47:50.298Z,1.56
2017-06-01T15:50:18.597Z,1.86
2017-06-01T15:52:46.914Z,1.68
2017-06-01T15:55:15.211Z,1.64
2017-06-01T15:57:43.531Z,1.76
2017-06-01T16:00:11.827Z,2.24
2017-06-01T16:02:40.162Z,1.74
2017-06-01T16:05:08.461Z,2.04
2017-06-01T16:07:36.766Z,1.66
2017-06-01T16:10:05.082Z,1.60
2017-06-01T16:12:33.379Z,1.96
2017-06-01T16:15:01.703Z,2.00
2017-06-01T16:17:30.010Z,1.40
2017-06-01T16:19:58.352Z,2.02
2017-06-01T16:22:26.660Z,1.40
2017-06-01T16:24:54.955Z,1.50
2017-06-01T16:27:23.270Z,2.38
2017-06-01T16:29:51.573Z,1.72
2017-06-01T16:32:19.894Z,3.56
2017-06-01T16:34:48.191Z,5.08
2017-06-01T16:37:16.512Z,2.20
2017-06-01T16:39:44.811Z,1.10
2017-06-01T16:42:13.135Z,2.20
2017-06-01T16:44:41.431Z,1.46
2017-06-01T16:47:09.725Z,1.30
2017-06-01T16:49:38.047Z,1.82
2017-06-01T16:52:06.344Z,1.82
2017-06-01T16:54:34.659Z,1.40
2017-06-01T16:57:02.971Z,1.40
2017-06-01T16:59:31.293Z,1.90
2017-06-01T17:01:59.606Z,1.40
2017-06-01T17:04:27.944Z,2.40
2017-06-01T17:06:56.244Z,1.36
2017-06-01T17:09:24.544Z,2.02
2017-06-01T17:11:52.870Z,1.50
2017-06-01T17:14:21.175Z,1.48
2017-06-01T17:16:49.495Z,1.32
2017-06-01T17:19:17.786Z,1.56
2017-06-01T17:21:46.126Z,0.94
2017-06-01T17:24:14.423Z,1.44
2017-06-01T17:26:42.723Z,1.00
2017-06-01T17:29:10.282Z,1.00
2017-06-01T17:31:40.142Z,1.34
2017-06-01T17:34:08.520Z,1.02
2017-06-01T17:36:36.824Z,0.98
2017-06-01T17:39:05.475Z,1.16
2017-06-01T17:41:33.795Z,1.08
2017-06-01T17:44:02.135Z,1.20
2017-06-01T17:46:30.435Z,1.22
2017-06-01T17:48:58.736Z,1.30
2017-06-01T17:51:27.061Z,0.92
2017-06-01T17:53:55.357Z,1.78
2017-06-01T17:56:23.674Z,1.40
2017-06-01T17:58:51.999Z,0.98
2017-06-01T18:01:20.323Z,1.40
2017-06-01T18:03:48.625Z,1.36
2017-06-01T18:06:16.967Z,1.66
2017-06-01T18:08:45.265Z,0.88
2017-06-01T18:11:13.568Z,1.10
2017-06-01T18:13:41.886Z,1.16
2017-06-01T18:16:10.188Z,0.94
2017-06-01T18:18:38.510Z,1.10
2017-06-01T18:21:06.836Z,1.20
2017-06-01T18:23:35.612Z,1.10
2017-06-01T18:26:03.959Z,1.38
2017-06-01T18:28:32.274Z,1.12
2017-06-01T18:31:00.568Z,1.20
2017-06-01T18:33:28.892Z,1.36
2017-06-01T18:35:57.453Z,1.12
2017-06-01T18:38:26.111Z,1.40
2017-06-01T18:40:54.461Z,1.02
2017-06-01T18:43:23.114Z,1.30
2017-06-01T18:45:51.567Z,1.48
2017-06-01T18:48:19.863Z,1.22
2017-06-01T18:50:48.435Z,1.10
2017-06-01T18:53:16.759Z,1.38
2017-06-01T18:55:45.072Z,1.16
2017-06-01T18:58:13.413Z,1.00
2017-06-01T19:00:41.707Z,1.20
2017-06-01T19:03:10.027Z,1.40
2017-06-01T19:05:38.326Z,1.30
2017-06-01T19:08:06.666Z,1.40
2017-06-01T19:10:34.967Z,1.38
2017-06-01T19:13:03.298Z,1.40
2017-06-01T19:15:31.621Z,1.16
2017-06-01T19:17:59.915Z,2.30
2017-06-01T19:20:28.237Z,2.10
2017-06-01T19:22:56.535Z,1.42
2017-06-01T19:25:24.876Z,1.92
2017-06-01T19:27:53.186Z,1.46
2017-06-01T19:30:21.479Z,1.84
2017-06-01T19:32:49.802Z,1.88
2017-06-01T19:35:18.103Z,1.74
2017-06-01T19:37:46.423Z,1.58
2017-06-01T19:40:14.723Z,1.30
2017-06-01T19:42:43.042Z,1.32
2017-06-01T19:45:11.343Z,1.70
2017-06-01T19:47:39.679Z,2.96
2017-06-01T19:50:07.975Z,1.68
2017-06-01T19:52:36.271Z,1.94
2017-06-01T19:55:04.585Z,1.30
2017-06-01T19:57:32.895Z,1.64
2017-06-01T20:00:01.219Z,1.20
2017-06-01T20:02:29.511Z,1.94
2017-06-01T20:04:57.832Z,1.56
2017-06-01T20:07:26.127Z,1.90
2017-06-01T20:09:54.451Z,1.78
2017-06-01T20:12:22.749Z,1.42
2017-06-01T20:14:51.052Z,1.28
2017-06-01T20:17:19.375Z,1.82
2017-06-01T20:19:47.670Z,1.80
2017-06-01T20:22:15.991Z,4.04
2017-06-01T20:24:44.287Z,1.74
2017-06-01T20:27:12.603Z,1.80
2017-06-01T20:29:40.903Z,2.98
2017-06-01T20:32:09.244Z,1.80
2017-06-01T20:34:37.544Z,1.84
2017-06-01T20:37:05.843Z,2.28
2017-06-01T20:39:34.163Z,1.92
2017-06-01T20:42:02.471Z,1.44
2017-06-01T20:44:30.791Z,1.36
2017-06-01T20:46:59.091Z,1.74
2017-06-01T20:49:27.422Z,1.52
2017-06-01T20:51:55.719Z,2.30
2017-06-01T20:54:24.027Z,1.50
2017-06-01T20:56:52.347Z,2.10
2017-06-01T20:59:20.646Z,1.46
2017-06-01T21:01:48.959Z,2.64
2017-06-01T21:04:17.255Z,2.04
2017-06-01T21:06:45.574Z,1.88
2017-06-01T21:09:13.874Z,1.50
2017-06-01T21:11:42.667Z,1.78
2017-06-01T21:14:10.964Z,1.80
2017-06-01T21:16:39.260Z,2.18
2017-06-01T21:19:07.580Z,1.32
2017-06-01T21:21:35.879Z,1.44
2017-06-01T21:24:04.200Z,1.66
2017-06-01T21:26:32.496Z,2.08
2017-06-01T21:29:00.811Z,2.10
2017-06-01T21:31:29.111Z,1.76
2017-06-01T21:33:57.432Z,1.68
2017-06-01T21:36:25.727Z,1.36
2017-06-01T21:38:54.028Z,1.40
2017-06-01T21:41:22.348Z,1.34
2017-06-01T21:43:50.643Z,1.72
2017-06-01T21:46:18.963Z,1.40
2017-06-01T21:48:47.264Z,1.58
2017-06-01T21:51:15.583Z,1.50
2017-06-01T21:53:43.881Z,1.68
2017-06-01T21:56:12.214Z,1.98
2017-06-01T21:58:40.510Z,2.16
2017-06-01T22:01:08.809Z,1.44
2017-06-01T22:03:37.127Z,1.62
2017-06-01T22:06:05.432Z,1.68
2017-06-01T22:08:33.747Z,1.46
2017-06-01T22:11:02.043Z,1.54
2017-06-01T22:13:30.356Z,1.36
2017-06-01T22:15:58.650Z,1.66
2017-06-01T22:18:26.987Z,1.22
2017-06-01T22:20:55.280Z,2.54
2017-06-01T22:23:23.578Z,2.14
2017-06-01T22:25:51.896Z,1.78
2017-06-01T22:28:20.203Z,1.62
2017-06-01T22:30:48.518Z,2.20
2017-06-01T22:33:16.812Z,1.52
2017-06-01T22:35:45.130Z,1.36
2017-06-01T22:38:13.431Z,1.74
2017-06-01T22:40:41.727Z,1.60
2017-06-01T22:43:10.042Z,1.56
2017-06-01T22:45:38.338Z,1.42
2017-06-01T22:48:06.670Z,1.86
2017-06-01T22:50:34.966Z,1.64
2017-06-01T22:53:03.267Z,1.68
2017-06-01T22:55:31.584Z,1.44
2017-06-01T22:57:59.878Z,1.66
2017-06-01T23:00:28.200Z,2.28
2017-06-01T23:02:56.495Z,1.48
2017-06-01T23:05:24.813Z,1.54
2017-06-01T23:07:53.115Z,1.60
2017-06-01T23:10:21.431Z,1.54
2017-06-01T23:12:49.722Z,2.04
2017-06-01T23:15:18.023Z,2.18
2017-06-01T23:17:46.339Z,1.90
2017-06-01T23:20:14.650Z,2.30
2017-06-01T23:22:42.964Z,2.10
2017-06-01T23:25:11.263Z,2.06
2017-06-01T23:27:39.579Z,1.46
2017-06-01T23:30:07.873Z,1.52
2017-06-01T23:32:36.190Z,2.60
2017-06-01T23:35:04.491Z,2.02
2017-06-01T23:37:32.787Z,5.76
2017-06-01T23:40:01.103Z,1.48
2017-06-01T23:42:29.402Z,2.08
2017-06-01T23:44:57.719Z,1.70
2017-06-01T23:47:26.010Z,1.20
2017-06-01T23:49:54.327Z,2.30
2017-06-01T23:52:22.623Z,1.72
2017-06-01T23:54:50.959Z,1.48
2017-06-01T23:57:19.253Z,1.54
2017-06-01T23:59:47.552Z,1.80
